createdAt,value
2018-02-16T00:00:14.025Z,4.41
2018-02-16T00:02:49.275Z,4.39
2018-02-16T00:05:24.451Z,4.37
2018-02-16T00:07:59.107Z,4.35
2018-02-16T00:10:34.134Z,4.36
2018-02-16T00:13:10.459Z,4.31
2018-02-16T00:15:45.430Z,4.30
2018-02-16T00:18:20.295Z,4.26
2018-02-16T00:20:55.251Z,4.22
2018-02-16T00:23:30.431Z,4.18
2018-02-16T00:26:05.079Z,4.18
2018-02-16T00:28:40.458Z,4.21
2018-02-16T00:31:16.058Z,4.17
2018-02-16T00:33:51.183Z,4.16
2018-02-16T00:36:26.447Z,4.11
2018-02-16T00:39:01.595Z,4.05
2018-02-16T00:41:36.427Z,4.01
2018-02-16T00:44:11.529Z,4.00
2018-02-16T00:46:46.484Z,4.01
2018-02-16T00:49:21.603Z,3.93
2018-02-16T00:51:56.171Z,3.89
2018-02-16T00:54:31.214Z,3.88
2018-02-16T00:57:05.556Z,3.90
2018-02-16T00:59:40.991Z,3.87
2018-02-16T01:02:16.031Z,3.88
2018-02-16T01:04:51.063Z,3.89
2018-02-16T01:07:25.723Z,3.85
2018-02-16T01:10:01.338Z,3.85
2018-02-16T01:12:36.347Z,3.81
2018-02-16T01:15:11.241Z,3.79
2018-02-16T01:17:46.247Z,3.79
2018-02-16T01:20:21.378Z,3.79
2018-02-16T01:22:56.175Z,3.77
2018-02-16T01:25:31.215Z,3.73
2018-02-16T01:28:06.265Z,3.73
2018-02-16T01:30:41.337Z,3.65
2018-02-16T01:33:15.927Z,3.63
2018-02-16T01:35:51.306Z,3.62
2018-02-16T01:38:26.298Z,3.56
2018-02-16T01:41:01.399Z,3.59
2018-02-16T01:43:36.427Z,3.60
2018-02-16T01:46:11.587Z,3.59
2018-02-16T01:48:46.699Z,3.51
2018-02-16T01:51:21.663Z,3.42
2018-02-16T01:53:56.391Z,3.43
2018-02-16T01:56:31.258Z,3.46
2018-02-16T01:59:05.713Z,3.42
2018-02-16T02:01:40.658Z,3.35
2018-02-16T02:04:15.823Z,3.21
2018-02-16T02:06:50.481Z,3.19
2018-02-16T02:09:25.543Z,3.18
2018-02-16T02:12:00.414Z,3.27
2018-02-16T02:14:35.323Z,3.26
2018-02-16T02:17:10.721Z,3.23
2018-02-16T02:19:45.127Z,3.34
2018-02-16T02:22:20.459Z,3.38
2018-02-16T02:24:54.844Z,3.31
2018-02-16T02:27:30.074Z,3.25
2018-02-16T02:30:05.303Z,3.19
2018-02-16T02:32:40.307Z,3.13
2018-02-16T02:35:15.285Z,3.15
2018-02-16T02:37:50.323Z,3.08
2018-02-16T02:40:25.387Z,3.18
2018-02-16T02:43:00.656Z,3.26
2018-02-16T02:45:35.634Z,3.23
2018-02-16T02:48:10.837Z,3.21
2018-02-16T02:50:45.595Z,3.21
2018-02-16T02:53:20.813Z,3.22
2018-02-16T02:55:55.429Z,3.27
2018-02-16T02:58:30.475Z,3.26
2018-02-16T03:01:05.755Z,3.27
2018-02-16T03:03:40.632Z,3.29
2018-02-16T03:06:15.723Z,3.27
2018-02-16T03:08:50.815Z,3.24
2018-02-16T03:11:25.730Z,3.26
2018-02-16T03:14:00.796Z,3.29
2018-02-16T03:16:35.823Z,3.32
2018-02-16T03:19:10.899Z,3.40
2018-02-16T03:21:45.651Z,3.39
2018-02-16T03:24:20.702Z,3.38
2018-02-16T03:26:55.551Z,3.41
2018-02-16T03:29:30.926Z,3.35
2018-02-16T03:32:05.546Z,3.35
2018-02-16T03:34:40.607Z,3.35
2018-02-16T03:37:15.516Z,3.32
2018-02-16T03:39:50.439Z,3.36
2018-02-16T03:42:25.632Z,3.38
2018-02-16T03:45:00.611Z,3.42
2018-02-16T03:47:35.607Z,3.35
2018-02-16T03:50:10.926Z,3.37
2018-02-16T03:52:46.058Z,3.34
2018-02-16T03:55:21.059Z,3.29
2018-02-16T03:57:56.431Z,3.28
2018-02-16T04:00:31.463Z,3.29
2018-02-16T04:03:06.546Z,3.27
2018-02-16T04:05:41.878Z,3.32
2018-02-16T04:08:16.819Z,3.31
2018-02-16T04:10:51.975Z,3.24
2018-02-16T04:13:27.368Z,3.27
2018-02-16T04:16:02.499Z,3.23
2018-02-16T04:18:37.619Z,3.20
2018-02-16T04:21:12.659Z,3.19
2018-02-16T04:23:47.615Z,3.17
2018-02-16T04:26:22.786Z,3.21
2018-02-16T04:28:57.159Z,3.23
2018-02-16T04:31:31.999Z,3.22
2018-02-16T04:34:07.149Z,3.16
2018-02-16T04:36:41.679Z,3.18
2018-02-16T04:39:16.778Z,3.18
2018-02-16T04:41:51.702Z,3.20
2018-02-16T04:44:27.183Z,3.14
2018-02-16T04:47:01.795Z,3.13
2018-02-16T04:49:36.739Z,3.14
2018-02-16T04:52:11.880Z,3.17
2018-02-16T04:54:46.726Z,3.11
2018-02-16T04:57:21.670Z,3.09
2018-02-16T04:59:56.719Z,3.10
2018-02-16T05:02:31.715Z,3.15
2018-02-16T05:05:06.606Z,3.16
2018-02-16T05:07:41.607Z,3.14
2018-02-16T05:10:16.902Z,3.18
2018-02-16T05:12:51.692Z,3.22
2018-02-16T05:15:26.948Z,3.20
2018-02-16T05:18:01.702Z,3.20
2018-02-16T05:20:36.860Z,3.14
2018-02-16T05:23:12.087Z,3.16
2018-02-16T05:25:47.037Z,3.11
2018-02-16T05:28:22.157Z,3.11
2018-02-16T05:30:56.735Z,3.13
2018-02-16T05:33:31.675Z,3.13
2018-02-16T05:36:07.243Z,3.10
2018-02-16T05:38:42.872Z,3.03
2018-02-16T05:41:17.915Z,3.00
2018-02-16T05:43:52.867Z,2.97
2018-02-16T05:46:27.463Z,3.01
2018-02-16T05:49:03.582Z,3.04
2018-02-16T05:51:38.706Z,3.00
2018-02-16T05:54:13.719Z,2.98
2018-02-16T05:56:48.394Z,3.06
2018-02-16T05:59:23.283Z,3.05
2018-02-16T06:01:58.227Z,3.05
2018-02-16T06:04:33.120Z,3.03
2018-02-16T06:07:08.075Z,3.03
2018-02-16T06:09:42.956Z,2.96
2018-02-16T06:12:18.007Z,2.93
2018-02-16T06:14:52.842Z,2.91
2018-02-16T06:17:27.847Z,2.92
2018-02-16T06:20:03.432Z,2.92
2018-02-16T06:22:38.812Z,2.89
2018-02-16T06:25:13.916Z,2.84
2018-02-16T06:27:48.327Z,2.90
2018-02-16T06:30:23.151Z,2.88
2018-02-16T06:32:58.181Z,2.83
2018-02-16T06:35:33.130Z,2.79
2018-02-16T06:38:08.310Z,2.84
2018-02-16T06:40:43.339Z,2.81
2018-02-16T06:43:18.956Z,2.87
2018-02-16T06:45:53.411Z,2.85
2018-02-16T06:48:28.019Z,2.88
2018-02-16T06:51:02.735Z,2.91
2018-02-16T06:53:37.971Z,2.92
2018-02-16T06:56:13.122Z,2.90
2018-02-16T06:58:47.775Z,2.92
2018-02-16T07:01:23.029Z,2.94
2018-02-16T07:03:57.491Z,2.93
2018-02-16T07:06:33.587Z,2.95
2018-02-16T07:09:08.539Z,2.98
2018-02-16T07:11:43.311Z,3.02
2018-02-16T07:14:18.255Z,3.06
2018-02-16T07:16:53.402Z,3.07
2018-02-16T07:19:28.270Z,3.13
2018-02-16T07:22:03.227Z,3.15
2018-02-16T07:24:38.110Z,3.22
2018-02-16T07:27:13.339Z,3.29
2018-02-16T07:29:48.195Z,3.29
2018-02-16T07:32:23.218Z,3.29
2018-02-16T07:34:58.087Z,3.28
2018-02-16T07:37:32.871Z,3.26
2018-02-16T07:40:07.647Z,3.31
2018-02-16T07:42:42.890Z,3.32
2018-02-16T07:45:17.431Z,3.32
2018-02-16T07:47:52.058Z,3.41
2018-02-16T07:50:27.252Z,3.46
2018-02-16T07:53:02.098Z,3.51
2018-02-16T07:55:37.175Z,3.62
2018-02-16T07:58:12.373Z,3.71
2018-02-16T08:00:47.015Z,3.86
2018-02-16T08:03:22.422Z,3.99
2018-02-16T08:05:57.174Z,4.12
2018-02-16T08:08:32.015Z,4.19
2018-02-16T08:11:07.202Z,4.29
2018-02-16T08:13:42.195Z,4.38
2018-02-16T08:16:17.335Z,4.53
2018-02-16T08:18:52.190Z,4.70
2018-02-16T08:21:27.260Z,4.96
2018-02-16T08:24:02.311Z,5.14
2018-02-16T08:26:37.563Z,5.25
2018-02-16T08:29:12.804Z,5.31
2018-02-16T08:31:47.445Z,5.38
2018-02-16T08:34:22.695Z,5.42
2018-02-16T08:36:58.251Z,5.54
2018-02-16T08:39:33.150Z,5.57
2018-02-16T08:42:08.229Z,5.68
2018-02-16T08:44:43.494Z,5.70
2018-02-16T08:47:18.311Z,5.67
2018-02-16T08:49:53.171Z,5.78
2018-02-16T08:52:28.542Z,5.86
2018-02-16T08:55:03.477Z,5.96
2018-02-16T08:57:38.339Z,6.21
2018-02-16T09:00:13.343Z,6.43
2018-02-16T09:02:48.510Z,6.53
2018-02-16T09:05:23.299Z,6.59
2018-02-16T09:07:58.547Z,6.67
2018-02-16T09:10:33.671Z,6.87
2018-02-16T09:13:08.603Z,7.14
2018-02-16T09:15:43.655Z,7.34
2018-02-16T09:18:18.711Z,7.37
2018-02-16T09:20:53.639Z,7.37
2018-02-16T09:23:29.195Z,7.36
2018-02-16T09:26:04.223Z,7.31
2018-02-16T09:28:39.011Z,7.27
2018-02-16T09:31:14.235Z,7.15
2018-02-16T09:33:49.317Z,7.19
2018-02-16T09:36:24.305Z,7.28
2018-02-16T09:39:00.067Z,7.38
2018-02-16T09:41:35.248Z,7.31
2018-02-16T09:44:11.571Z,7.30
2018-02-16T09:46:46.021Z,7.55
2018-02-16T09:49:21.478Z,7.92
2018-02-16T09:51:56.491Z,8.37
2018-02-16T09:54:31.440Z,8.58
2018-02-16T09:57:06.343Z,8.77
2018-02-16T09:59:41.388Z,8.81
2018-02-16T10:02:16.639Z,8.77
2018-02-16T10:04:51.619Z,8.92
2018-02-16T10:07:27.344Z,9.01
2018-02-16T10:10:01.579Z,9.00
2018-02-16T10:12:36.414Z,9.04
2018-02-16T10:15:11.763Z,9.08
2018-02-16T10:17:46.391Z,9.00
2018-02-16T10:20:21.376Z,9.01
2018-02-16T10:22:56.419Z,9.15
2018-02-16T10:25:31.311Z,9.27
2018-02-16T10:28:06.440Z,9.26
2018-02-16T10:30:41.258Z,9.22
2018-02-16T10:33:15.948Z,9.30
2018-02-16T10:35:51.282Z,9.38
2018-02-16T10:38:25.986Z,9.45
2018-02-16T10:41:01.307Z,9.55
2018-02-16T10:43:35.739Z,9.33
2018-02-16T10:46:11.686Z,9.12
2018-02-16T10:48:46.535Z,9.15
2018-02-16T10:51:21.498Z,9.17
2018-02-16T10:53:56.595Z,8.99
2018-02-16T10:56:31.551Z,8.85
2018-02-16T10:59:06.604Z,8.67
2018-02-16T11:01:44.991Z,8.69
2018-02-16T11:07:24.468Z,8.73
2018-02-16T11:09:59.447Z,8.66
2018-02-16T11:12:34.438Z,8.66
2018-02-16T11:15:09.591Z,8.86
2018-02-16T11:17:44.743Z,8.99
2018-02-16T11:20:19.778Z,9.18
2018-02-16T11:22:54.776Z,9.29
2018-02-16T11:25:29.847Z,9.39
2018-02-16T11:28:04.794Z,9.48
2018-02-16T11:30:39.890Z,9.49
2018-02-16T11:33:14.962Z,9.65
2018-02-16T11:35:49.533Z,9.82
2018-02-16T11:38:24.679Z,9.89
2018-02-16T11:40:59.486Z,9.87
2018-02-16T11:43:34.553Z,9.53
2018-02-16T11:46:09.023Z,9.11
2018-02-16T11:48:43.983Z,8.66
2018-02-16T11:51:18.843Z,8.65
2018-02-16T11:53:53.983Z,8.47
2018-02-16T11:56:29.218Z,8.28
2018-02-16T11:59:03.355Z,8.30
2018-02-16T12:01:38.694Z,8.55
2018-02-16T12:04:13.598Z,8.56
2018-02-16T12:06:48.532Z,8.53
2018-02-16T12:09:23.811Z,8.55
2018-02-16T12:11:58.600Z,8.51
2018-02-16T12:14:33.663Z,8.29
2018-02-16T12:17:08.735Z,8.15
2018-02-16T12:19:43.598Z,8.11
2018-02-16T12:22:17.852Z,8.06
2018-02-16T12:24:52.485Z,8.04
2018-02-16T12:27:27.148Z,7.99
2018-02-16T12:30:01.602Z,8.09
2018-02-16T12:32:36.655Z,8.14
2018-02-16T12:35:11.944Z,8.16
2018-02-16T12:37:46.623Z,8.14
2018-02-16T12:40:21.232Z,7.99
2018-02-16T12:42:56.092Z,7.94
2018-02-16T12:45:31.583Z,7.90
2018-02-16T12:48:06.258Z,8.07
2018-02-16T12:50:41.595Z,8.41
2018-02-16T12:53:16.711Z,8.72
2018-02-16T12:55:51.593Z,8.87
2018-02-16T12:58:26.209Z,8.99
2018-02-16T13:01:01.620Z,9.04
2018-02-16T13:03:36.731Z,9.15
2018-02-16T13:06:12.142Z,9.30
2018-02-16T13:08:47.791Z,9.50
2018-02-16T13:11:22.207Z,9.53
2018-02-16T13:13:57.071Z,9.30
2018-02-16T13:16:32.078Z,9.33
2018-02-16T13:19:07.107Z,9.49
2018-02-16T13:21:42.919Z,9.66
2018-02-16T13:24:18.043Z,9.90
2018-02-16T13:26:52.828Z,10.08
2018-02-16T13:29:28.021Z,10.15
2018-02-16T13:32:02.911Z,10.22
2018-02-16T13:34:37.803Z,10.27
2018-02-16T13:37:12.742Z,10.27
2018-02-16T13:39:47.184Z,10.27
2018-02-16T13:42:22.175Z,10.07
2018-02-16T13:44:57.211Z,9.90
2018-02-16T13:47:32.262Z,9.73
2018-02-16T13:50:07.435Z,9.56
2018-02-16T13:52:42.352Z,9.34
2018-02-16T13:55:17.413Z,9.17
2018-02-16T13:57:52.223Z,9.11
2018-02-16T14:00:27.123Z,9.10
2018-02-16T14:03:01.998Z,9.06
2018-02-16T14:05:36.927Z,9.00
2018-02-16T14:08:12.186Z,8.93
2018-02-16T14:10:46.834Z,8.75
2018-02-16T14:13:22.105Z,8.72
2018-02-16T14:15:57.006Z,8.71
2018-02-16T14:18:32.017Z,8.78
2018-02-16T14:21:07.154Z,8.88
2018-02-16T14:23:42.098Z,8.96
2018-02-16T14:26:17.159Z,8.97
2018-02-16T14:28:52.068Z,8.89
2018-02-16T14:31:27.115Z,8.83
2018-02-16T14:34:01.975Z,8.89
2018-02-16T14:36:36.534Z,8.92
2018-02-16T14:39:12.192Z,8.83
2018-02-16T14:41:47.157Z,8.69
2018-02-16T14:44:22.319Z,8.46
2018-02-16T14:46:57.295Z,8.41
2018-02-16T14:49:31.931Z,8.42
2018-02-16T14:52:07.015Z,8.39
2018-02-16T14:54:41.944Z,8.35
2018-02-16T14:57:16.903Z,8.32
2018-02-16T14:59:51.900Z,8.42
2018-02-16T15:02:26.567Z,8.50
2018-02-16T15:05:01.596Z,8.58
2018-02-16T15:07:36.399Z,8.49
2018-02-16T15:10:12.267Z,8.31
2018-02-16T15:12:47.262Z,8.24
2018-02-16T15:15:22.235Z,8.26
2018-02-16T15:17:57.962Z,8.34
2018-02-16T15:20:32.694Z,8.44
2018-02-16T15:23:07.999Z,8.58
2018-02-16T15:25:43.055Z,8.70
2018-02-16T15:28:18.239Z,8.78
2018-02-16T15:30:52.843Z,8.82
2018-02-16T15:33:28.218Z,8.93
2018-02-16T15:36:03.116Z,8.99
2018-02-16T15:38:38.116Z,9.01
2018-02-16T15:41:13.147Z,8.94
2018-02-16T15:43:48.014Z,8.91
2018-02-16T15:46:23.251Z,8.86
2018-02-16T15:48:58.451Z,8.79
2018-02-16T15:51:33.184Z,8.76
2018-02-16T15:54:08.166Z,8.77
2018-02-16T15:56:42.995Z,8.75
2018-02-16T15:59:17.639Z,8.76
2018-02-16T16:01:52.596Z,8.66
2018-02-16T16:04:27.514Z,8.64
2018-02-16T16:07:02.598Z,8.58
2018-02-16T16:09:37.511Z,8.54
2018-02-16T16:12:12.482Z,8.49
2018-02-16T16:14:47.375Z,8.35
2018-02-16T16:17:22.866Z,8.33
2018-02-16T16:19:58.211Z,8.34
2018-02-16T16:22:33.214Z,8.40
2018-02-16T16:25:08.207Z,8.38
2018-02-16T16:27:43.019Z,8.28
2018-02-16T16:30:18.319Z,8.14
2018-02-16T16:32:53.259Z,8.08
2018-02-16T16:35:28.418Z,8.00
2018-02-16T16:38:03.263Z,7.91
2018-02-16T16:40:38.263Z,7.81
2018-02-16T16:43:13.559Z,7.69
2018-02-16T16:45:48.358Z,7.67
2018-02-16T16:48:23.423Z,7.60
2018-02-16T16:50:58.330Z,7.57
2018-02-16T16:53:33.378Z,7.60
2018-02-16T16:56:09.347Z,7.53
2018-02-16T16:58:44.247Z,7.53
2018-02-16T17:01:18.315Z,7.48
2018-02-16T17:03:52.496Z,7.43
2018-02-16T17:06:27.461Z,7.39
2018-02-16T17:09:02.589Z,7.41
2018-02-16T17:11:37.375Z,7.39
2018-02-16T17:14:12.667Z,7.33
2018-02-16T17:16:47.527Z,7.29
2018-02-16T17:19:22.099Z,7.27
2018-02-16T17:21:57.454Z,7.26
2018-02-16T17:24:32.026Z,7.25
2018-02-16T17:27:07.286Z,7.21
2018-02-16T17:29:42.359Z,7.21
2018-02-16T17:32:16.895Z,7.16
2018-02-16T17:34:52.286Z,7.10
2018-02-16T17:37:27.216Z,7.04
2018-02-16T17:40:02.278Z,7.01
2018-02-16T17:42:37.287Z,6.96
2018-02-16T17:45:12.180Z,6.93
2018-02-16T17:47:46.899Z,6.92
2018-02-16T17:50:21.786Z,6.90
2018-02-16T17:52:56.744Z,6.84
2018-02-16T17:55:32.004Z,6.77
2018-02-16T17:58:07.016Z,6.66
2018-02-16T18:00:41.672Z,6.59
2018-02-16T18:03:16.782Z,6.60
2018-02-16T18:05:51.727Z,6.61
2018-02-16T18:08:26.563Z,6.63
2018-02-16T18:11:01.170Z,6.61
2018-02-16T18:13:36.312Z,6.60
2018-02-16T18:16:11.722Z,6.58
2018-02-16T18:18:46.803Z,6.60
2018-02-16T18:21:22.614Z,6.57
2018-02-16T18:23:57.839Z,6.52
2018-02-16T18:26:32.951Z,6.48
2018-02-16T18:29:07.971Z,6.43
2018-02-16T18:31:42.799Z,6.39
2018-02-16T18:34:17.419Z,6.36
2018-02-16T18:36:52.762Z,6.31
2018-02-16T18:39:28.001Z,6.25
2018-02-16T18:42:02.787Z,6.18
2018-02-16T18:44:37.423Z,6.08
2018-02-16T18:47:12.127Z,5.98
2018-02-16T18:49:47.514Z,5.83
2018-02-16T18:52:22.235Z,5.65
2018-02-16T18:54:57.399Z,5.47
2018-02-16T18:57:32.143Z,5.33
2018-02-16T19:00:06.706Z,5.29
2018-02-16T19:02:42.743Z,5.31
2018-02-16T19:05:17.975Z,5.35
2018-02-16T19:07:52.919Z,5.42
2018-02-16T19:10:27.379Z,5.45
2018-02-16T19:13:02.602Z,5.47
2018-02-16T19:15:37.182Z,5.47
2018-02-16T19:18:12.038Z,5.48
2018-02-16T19:20:46.979Z,5.36
2018-02-16T19:23:22.031Z,5.33
2018-02-16T19:25:56.878Z,5.28
2018-02-16T19:28:31.622Z,5.23
2018-02-16T19:31:06.710Z,5.18
2018-02-16T19:33:41.731Z,5.15
2018-02-16T19:36:17.800Z,5.15
2018-02-16T19:38:54.067Z,5.16
2018-02-16T19:41:29.610Z,5.16
2018-02-16T19:44:04.104Z,5.15
2018-02-16T19:46:39.480Z,5.15
2018-02-16T19:49:14.795Z,5.13
2018-02-16T19:51:50.354Z,5.09
2018-02-16T19:54:24.893Z,5.05
2018-02-16T19:57:00.303Z,5.02
2018-02-16T19:59:35.992Z,4.99
2018-02-16T20:02:10.998Z,4.95
2018-02-16T20:04:46.466Z,4.91
2018-02-16T20:07:21.438Z,4.82
2018-02-16T20:09:56.488Z,4.69
2018-02-16T20:12:31.594Z,4.66
2018-02-16T20:15:07.018Z,4.67
2018-02-16T20:17:42.157Z,4.69
2018-02-16T20:20:16.995Z,4.71
2018-02-16T20:22:51.255Z,4.76
2018-02-16T20:25:26.616Z,4.76
2018-02-16T20:28:01.307Z,4.74
2018-02-16T20:30:36.325Z,4.70
2018-02-16T20:33:11.179Z,4.66
2018-02-16T20:35:46.518Z,4.63
2018-02-16T20:38:21.530Z,4.62
2018-02-16T20:40:56.176Z,4.62
2018-02-16T20:43:31.167Z,4.64
2018-02-16T20:46:06.485Z,5.73
2018-02-16T20:48:41.419Z,7.02
2018-02-16T20:51:16.310Z,8.06
2018-02-16T20:53:51.510Z,8.84
2018-02-16T20:56:26.531Z,9.42
2018-02-16T20:59:01.587Z,9.81
2018-02-16T21:01:36.447Z,10.02
2018-02-16T21:04:11.668Z,10.22
2018-02-16T21:06:46.494Z,10.42
2018-02-16T21:09:21.822Z,10.51
2018-02-16T21:11:56.871Z,10.54
2018-02-16T21:14:31.843Z,10.68
2018-02-16T21:17:07.291Z,10.85
2018-02-16T21:19:42.911Z,10.84
2018-02-16T21:22:18.243Z,10.20
2018-02-16T21:24:53.172Z,9.29
2018-02-16T21:27:28.095Z,8.41
2018-02-16T21:30:02.658Z,7.62
2018-02-16T21:32:37.720Z,6.92
2018-02-16T21:35:12.509Z,6.32
2018-02-16T21:37:47.415Z,5.87
2018-02-16T21:40:22.218Z,5.58
2018-02-16T21:42:57.299Z,5.30
2018-02-16T21:45:32.419Z,5.08
2018-02-16T21:48:07.403Z,4.89
2018-02-16T21:50:41.786Z,4.77
2018-02-16T21:53:17.240Z,4.68
2018-02-16T21:55:52.531Z,4.58
2018-02-16T21:58:27.791Z,4.46
2018-02-16T22:01:03.176Z,4.40
2018-02-16T22:03:37.847Z,4.33
2018-02-16T22:06:12.792Z,4.28
2018-02-16T22:08:47.869Z,4.24
2018-02-16T22:11:22.473Z,4.19
2018-02-16T22:13:57.768Z,4.18
2018-02-16T22:16:32.438Z,4.14
2018-02-16T22:19:07.650Z,4.08
2018-02-16T22:21:42.387Z,4.03
2018-02-16T22:24:17.438Z,4.00
2018-02-16T22:26:52.074Z,3.95
2018-02-16T22:29:26.823Z,3.94
2018-02-16T22:32:01.683Z,3.94
2018-02-16T22:34:36.367Z,3.92
2018-02-16T22:37:11.331Z,3.84
2018-02-16T22:39:46.726Z,3.75
2018-02-16T22:42:21.475Z,3.67
2018-02-16T22:44:56.724Z,3.59
2018-02-16T22:47:31.823Z,3.54
2018-02-16T22:50:06.975Z,3.43
2018-02-16T22:52:42.013Z,3.44
2018-02-16T22:55:16.464Z,3.43
2018-02-16T22:57:51.229Z,3.41
2018-02-16T23:00:25.917Z,3.38
2018-02-16T23:03:01.423Z,3.37
2018-02-16T23:05:36.547Z,3.35
2018-02-16T23:08:11.590Z,3.33
2018-02-16T23:10:46.947Z,3.29
2018-02-16T23:13:21.730Z,3.24
2018-02-16T23:15:56.815Z,3.21
2018-02-16T23:18:31.834Z,3.13
2018-02-16T23:21:06.907Z,3.05
2018-02-16T23:23:41.418Z,2.99
2018-02-16T23:26:16.746Z,2.94
2018-02-16T23:28:51.703Z,2.90
2018-02-16T23:31:27.004Z,2.87
2018-02-16T23:34:02.623Z,2.81
2018-02-16T23:36:38.287Z,2.73
2018-02-16T23:39:13.591Z,2.66
2018-02-16T23:41:48.887Z,2.56
2018-02-16T23:44:23.893Z,2.47
2018-02-16T23:46:59.530Z,2.43
2018-02-16T23:49:34.532Z,2.40
2018-02-16T23:52:09.567Z,2.37
2018-02-16T23:54:44.832Z,2.39
2018-02-16T23:57:18.988Z,2.38
2018-02-16T23:59:53.426Z,2.34
